sensor_id;sensor_type;location;lat;lon;timestamp;temperature;humidity
75705;DHT22;70013;44.726;37.760;2023-08-06T00:00:49;29.53;41.57
75705;DHT22;70013;44.726;37.760;2023-08-06T00:01:51;29.50;41.77
75705;DHT22;70013;44.726;37.760;2023-08-06T00:02:52;29.47;42.03
75705;DHT22;70013;44.726;37.760;2023-08-06T00:03:53;29.44;42.68
75705;DHT22;70013;44.726;37.760;2023-08-06T00:04:54;29.39;42.23
75705;DHT22;70013;44.726;37.760;2023-08-06T00:05:56;29.36;41.98
75705;DHT22;70013;44.726;37.760;2023-08-06T00:06:57;29.34;43.03
75705;DHT22;70013;44.726;37.760;2023-08-06T00:07:58;29.31;42.65
75705;DHT22;70013;44.726;37.760;2023-08-06T00:08:59;29.29;42.76
75705;DHT22;70013;44.726;37.760;2023-08-06T00:10:00;29.26;42.65
75705;DHT22;70013;44.726;37.760;2023-08-06T00:11:02;29.23;42.52
75705;DHT22;70013;44.726;37.760;2023-08-06T00:12:03;29.20;42.90
75705;DHT22;70013;44.726;37.760;2023-08-06T00:13:05;29.18;43.21
75705;DHT22;70013;44.726;37.760;2023-08-06T00:14:06;29.16;43.42
75705;DHT22;70013;44.726;37.760;2023-08-06T00:15:07;29.12;43.30
75705;DHT22;70013;44.726;37.760;2023-08-06T00:16:09;29.09;43.45
75705;DHT22;70013;44.726;37.760;2023-08-06T00:17:10;29.09;43.21
75705;DHT22;70013;44.726;37.760;2023-08-06T00:18:11;29.06;43.39
75705;DHT22;70013;44.726;37.760;2023-08-06T00:19:13;29.02;43.42
75705;DHT22;70013;44.726;37.760;2023-08-06T00:20:14;28.99;43.32
75705;DHT22;70013;44.726;37.760;2023-08-06T00:21:15;28.97;43.94
75705;DHT22;70013;44.726;37.760;2023-08-06T00:22:16;28.93;43.33
75705;DHT22;70013;44.726;37.760;2023-08-06T00:23:17;28.91;44.10
75705;DHT22;70013;44.726;37.760;2023-08-06T00:24:19;28.87;44.30
75705;DHT22;70013;44.726;37.760;2023-08-06T00:25:20;28.83;44.70
75705;DHT22;70013;44.726;37.760;2023-08-06T00:26:21;28.79;44.89
75705;DHT22;70013;44.726;37.760;2023-08-06T00:27:23;28.77;44.15
75705;DHT22;70013;44.726;37.760;2023-08-06T00:28:24;28.75;44.67
75705;DHT22;70013;44.726;37.760;2023-08-06T00:29:26;28.72;44.83
75705;DHT22;70013;44.726;37.760;2023-08-06T00:30:27;28.70;44.89
75705;DHT22;70013;44.726;37.760;2023-08-06T00:31:28;28.68;44.89
75705;DHT22;70013;44.726;37.760;2023-08-06T00:32:35;28.67;45.23
75705;DHT22;70013;44.726;37.760;2023-08-06T00:33:36;28.62;44.92
75705;DHT22;70013;44.726;37.760;2023-08-06T00:34:38;28.61;45.45
75705;DHT22;70013;44.726;37.760;2023-08-06T00:35:39;28.60;45.35
75705;DHT22;70013;44.726;37.760;2023-08-06T00:36:40;28.59;45.38
75705;DHT22;70013;44.726;37.760;2023-08-06T00:37:41;28.59;45.06
75705;DHT22;70013;44.726;37.760;2023-08-06T00:38:42;28.60;44.90
75705;DHT22;70013;44.726;37.760;2023-08-06T00:39:44;28.61;44.79
75705;DHT22;70013;44.726;37.760;2023-08-06T00:40:45;28.61;44.77
75705;DHT22;70013;44.726;37.760;2023-08-06T00:41:46;28.59;44.91
75705;DHT22;70013;44.726;37.760;2023-08-06T00:42:48;28.60;44.67
75705;DHT22;70013;44.726;37.760;2023-08-06T00:43:49;28.60;44.80
75705;DHT22;70013;44.726;37.760;2023-08-06T00:44:51;28.59;44.74
75705;DHT22;70013;44.726;37.760;2023-08-06T00:45:52;28.58;44.90
75705;DHT22;70013;44.726;37.760;2023-08-06T00:46:53;28.59;44.93
75705;DHT22;70013;44.726;37.760;2023-08-06T00:47:54;28.57;44.91
75705;DHT22;70013;44.726;37.760;2023-08-06T00:48:56;28.56;44.94
75705;DHT22;70013;44.726;37.760;2023-08-06T00:49:57;28.56;45.16
75705;DHT22;70013;44.726;37.760;2023-08-06T00:50:58;28.56;44.83
75705;DHT22;70013;44.726;37.760;2023-08-06T00:52:00;28.54;45.27
75705;DHT22;70013;44.726;37.760;2023-08-06T00:53:01;28.50;45.57
75705;DHT22;70013;44.726;37.760;2023-08-06T00:54:02;28.49;45.09
75705;DHT22;70013;44.726;37.760;2023-08-06T00:55:04;28.48;45.45
75705;DHT22;70013;44.726;37.760;2023-08-06T00:56:06;28.45;46.01
75705;DHT22;70013;44.726;37.760;2023-08-06T00:57:08;28.41;45.38
75705;DHT22;70013;44.726;37.760;2023-08-06T00:58:10;28.41;45.74
75705;DHT22;70013;44.726;37.760;2023-08-06T00:59:11;28.39;45.95
75705;DHT22;70013;44.726;37.760;2023-08-06T01:00:12;28.37;46.02
75705;DHT22;70013;44.726;37.760;2023-08-06T01:01:13;28.34;45.86
75705;DHT22;70013;44.726;37.760;2023-08-06T01:02:14;28.33;45.64
75705;DHT22;70013;44.726;37.760;2023-08-06T01:03:16;28.31;46.22
75705;DHT22;70013;44.726;37.760;2023-08-06T01:04:18;28.30;46.26
75705;DHT22;70013;44.726;37.760;2023-08-06T01:05:21;28.29;46.09
75705;DHT22;70013;44.726;37.760;2023-08-06T01:06:29;28.26;46.17
75705;DHT22;70013;44.726;37.760;2023-08-06T01:07:56;28.25;46.35
75705;DHT22;70013;44.726;37.760;2023-08-06T01:08:58;28.24;46.21
75705;DHT22;70013;44.726;37.760;2023-08-06T01:12:24;28.14;46.70
75705;DHT22;70013;44.726;37.760;2023-08-06T01:13:35;28.11;46.76
75705;DHT22;70013;44.726;37.760;2023-08-06T01:14:45;28.08;46.59
75705;DHT22;70013;44.726;37.760;2023-08-06T01:15:54;28.05;47.25
75705;DHT22;70013;44.726;37.760;2023-08-06T01:16:58;28.02;47.17
75705;DHT22;70013;44.726;37.760;2023-08-06T01:17:59;28.00;47.31
75705;DHT22;70013;44.726;37.760;2023-08-06T01:19:00;27.98;47.88
75705;DHT22;70013;44.726;37.760;2023-08-06T01:20:01;27.94;47.27
75705;DHT22;70013;44.726;37.760;2023-08-06T01:21:02;27.93;47.28
75705;DHT22;70013;44.726;37.760;2023-08-06T01:22:04;27.88;47.35
75705;DHT22;70013;44.726;37.760;2023-08-06T01:23:07;27.87;47.92
75705;DHT22;70013;44.726;37.760;2023-08-06T01:24:08;27.84;48.13
75705;DHT22;70013;44.726;37.760;2023-08-06T01:25:10;27.82;48.34
75705;DHT22;70013;44.726;37.760;2023-08-06T01:26:23;27.76;48.57
75705;DHT22;70013;44.726;37.760;2023-08-06T01:27:44;27.74;48.83
75705;DHT22;70013;44.726;37.760;2023-08-06T01:29:56;27.68;48.55
75705;DHT22;70013;44.726;37.760;2023-08-06T01:30:59;27.64;48.57
75705;DHT22;70013;44.726;37.760;2023-08-06T01:32:08;27.61;49.39
75705;DHT22;70013;44.726;37.760;2023-08-06T01:33:13;27.58;49.45
75705;DHT22;70013;44.726;37.760;2023-08-06T01:34:17;27.55;49.65
75705;DHT22;70013;44.726;37.760;2023-08-06T01:35:20;27.52;49.55
75705;DHT22;70013;44.726;37.760;2023-08-06T01:36:22;27.50;50.26
75705;DHT22;70013;44.726;37.760;2023-08-06T01:37:23;27.47;49.57
75705;DHT22;70013;44.726;37.760;2023-08-06T01:38:25;27.44;50.30
75705;DHT22;70013;44.726;37.760;2023-08-06T01:39:26;27.42;50.43
75705;DHT22;70013;44.726;37.760;2023-08-06T01:40:27;27.40;50.37
75705;DHT22;70013;44.726;37.760;2023-08-06T01:41:30;27.39;50.76
75705;DHT22;70013;44.726;37.760;2023-08-06T01:42:32;27.37;50.21
75705;DHT22;70013;44.726;37.760;2023-08-06T01:43:33;27.34;50.60
75705;DHT22;70013;44.726;37.760;2023-08-06T01:44:34;27.34;50.55
75705;DHT22;70013;44.726;37.760;2023-08-06T01:45:35;27.32;50.42
75705;DHT22;70013;44.726;37.760;2023-08-06T01:46:36;27.29;50.48
75705;DHT22;70013;44.726;37.760;2023-08-06T01:47:37;27.27;50.08
75705;DHT22;70013;44.726;37.760;2023-08-06T01:48:39;27.26;50.86
75705;DHT22;70013;44.726;37.760;2023-08-06T01:49:40;27.24;50.30
75705;DHT22;70013;44.726;37.760;2023-08-06T01:50:41;27.23;50.98
75705;DHT22;70013;44.726;37.760;2023-08-06T01:51:42;27.21;51.19
75705;DHT22;70013;44.726;37.760;2023-08-06T01:52:43;27.19;50.96
75705;DHT22;70013;44.726;37.760;2023-08-06T01:53:44;27.17;51.24
75705;DHT22;70013;44.726;37.760;2023-08-06T01:54:46;27.14;51.14
75705;DHT22;70013;44.726;37.760;2023-08-06T01:55:48;27.14;51.17
75705;DHT22;70013;44.726;37.760;2023-08-06T01:56:49;27.11;50.58
75705;DHT22;70013;44.726;37.760;2023-08-06T01:57:50;27.10;51.33
75705;DHT22;70013;44.726;37.760;2023-08-06T01:58:52;27.07;51.60
75705;DHT22;70013;44.726;37.760;2023-08-06T01:59:53;27.07;51.82
75705;DHT22;70013;44.726;37.760;2023-08-06T02:00:54;27.06;50.97
75705;DHT22;70013;44.726;37.760;2023-08-06T02:01:55;27.01;51.72
75705;DHT22;70013;44.726;37.760;2023-08-06T02:02:56;27.01;51.40
75705;DHT22;70013;44.726;37.760;2023-08-06T02:03:57;27.00;51.66
75705;DHT22;70013;44.726;37.760;2023-08-06T02:04:58;26.99;51.39
75705;DHT22;70013;44.726;37.760;2023-08-06T02:06:00;26.97;51.39
75705;DHT22;70013;44.726;37.760;2023-08-06T02:07:01;26.97;51.29
75705;DHT22;70013;44.726;37.760;2023-08-06T02:08:02;26.96;52.10
75705;DHT22;70013;44.726;37.760;2023-08-06T02:09:03;26.94;51.96
75705;DHT22;70013;44.726;37.760;2023-08-06T02:10:05;26.94;51.63
75705;DHT22;70013;44.726;37.760;2023-08-06T02:11:06;26.93;51.98
75705;DHT22;70013;44.726;37.760;2023-08-06T02:12:09;26.94;52.17
75705;DHT22;70013;44.726;37.760;2023-08-06T02:13:10;26.93;52.07
75705;DHT22;70013;44.726;37.760;2023-08-06T02:14:11;26.93;51.88
75705;DHT22;70013;44.726;37.760;2023-08-06T02:15:14;26.93;51.10
75705;DHT22;70013;44.726;37.760;2023-08-06T02:16:15;26.93;51.69
75705;DHT22;70013;44.726;37.760;2023-08-06T02:17:17;26.93;51.89
75705;DHT22;70013;44.726;37.760;2023-08-06T02:18:18;26.93;51.70
75705;DHT22;70013;44.726;37.760;2023-08-06T02:19:19;26.93;51.25
75705;DHT22;70013;44.726;37.760;2023-08-06T02:20:21;26.95;51.50
75705;DHT22;70013;44.726;37.760;2023-08-06T02:21:22;26.95;51.74
75705;DHT22;70013;44.726;37.760;2023-08-06T02:22:23;26.95;51.39
75705;DHT22;70013;44.726;37.760;2023-08-06T02:23:25;26.94;51.73
75705;DHT22;70013;44.726;37.760;2023-08-06T02:24:26;26.95;51.69
75705;DHT22;70013;44.726;37.760;2023-08-06T02:25:27;26.95;51.72
75705;DHT22;70013;44.726;37.760;2023-08-06T02:26:28;26.95;51.54
75705;DHT22;70013;44.726;37.760;2023-08-06T02:27:30;26.95;51.43
75705;DHT22;70013;44.726;37.760;2023-08-06T02:28:31;26.94;51.68
75705;DHT22;70013;44.726;37.760;2023-08-06T02:29:33;26.96;51.62
75705;DHT22;70013;44.726;37.760;2023-08-06T02:30:34;26.97;51.51
75705;DHT22;70013;44.726;37.760;2023-08-06T02:31:35;26.96;51.75
75705;DHT22;70013;44.726;37.760;2023-08-06T02:32:42;26.97;51.99
75705;DHT22;70013;44.726;37.760;2023-08-06T02:33:43;27.00;52.05
75705;DHT22;70013;44.726;37.760;2023-08-06T02:34:45;26.99;51.82
75705;DHT22;70013;44.726;37.760;2023-08-06T02:35:46;27.01;51.92
75705;DHT22;70013;44.726;37.760;2023-08-06T02:36:48;27.00;52.43
75705;DHT22;70013;44.726;37.760;2023-08-06T02:37:50;27.01;52.17
75705;DHT22;70013;44.726;37.760;2023-08-06T02:38:51;27.04;52.13
75705;DHT22;70013;44.726;37.760;2023-08-06T02:39:52;27.07;51.92
75705;DHT22;70013;44.726;37.760;2023-08-06T02:40:53;27.07;52.11
75705;DHT22;70013;44.726;37.760;2023-08-06T02:41:55;27.08;51.77
75705;DHT22;70013;44.726;37.760;2023-08-06T02:42:56;27.10;51.71
75705;DHT22;70013;44.726;37.760;2023-08-06T02:43:57;27.12;51.82
75705;DHT22;70013;44.726;37.760;2023-08-06T02:44:58;27.14;51.49
75705;DHT22;70013;44.726;37.760;2023-08-06T02:45:59;27.16;51.68
75705;DHT22;70013;44.726;37.760;2023-08-06T02:47:01;27.19;50.91
75705;DHT22;70013;44.726;37.760;2023-08-06T02:48:02;27.22;50.98
75705;DHT22;70013;44.726;37.760;2023-08-06T02:49:04;27.24;50.82
75705;DHT22;70013;44.726;37.760;2023-08-06T02:50:05;27.27;50.72
75705;DHT22;70013;44.726;37.760;2023-08-06T02:51:06;27.31;50.66
75705;DHT22;70013;44.726;37.760;2023-08-06T02:52:08;27.35;50.22
75705;DHT22;70013;44.726;37.760;2023-08-06T02:53:09;27.36;50.71
75705;DHT22;70013;44.726;37.760;2023-08-06T02:54:11;27.40;50.36
75705;DHT22;70013;44.726;37.760;2023-08-06T02:55:12;27.44;50.56
75705;DHT22;70013;44.726;37.760;2023-08-06T02:56:18;27.46;50.03
75705;DHT22;70013;44.726;37.760;2023-08-06T02:57:34;27.51;50.66
75705;DHT22;70013;44.726;37.760;2023-08-06T02:58:35;27.53;50.49
75705;DHT22;70013;44.726;37.760;2023-08-06T02:59:55;27.58;50.67
75705;DHT22;70013;44.726;37.760;2023-08-06T03:02:03;27.67;50.49
75705;DHT22;70013;44.726;37.760;2023-08-06T03:03:14;27.72;50.11
75705;DHT22;70013;44.726;37.760;2023-08-06T03:04:22;27.75;49.85
75705;DHT22;70013;44.726;37.760;2023-08-06T03:05:24;27.82;49.88
75705;DHT22;70013;44.726;37.760;2023-08-06T03:06:26;27.86;50.30
75705;DHT22;70013;44.726;37.760;2023-08-06T03:07:29;27.93;50.09
75705;DHT22;70013;44.726;37.760;2023-08-06T03:08:37;27.97;49.36
75705;DHT22;70013;44.726;37.760;2023-08-06T03:09:38;28.01;49.60
75705;DHT22;70013;44.726;37.760;2023-08-06T03:10:39;28.08;49.53
75705;DHT22;70013;44.726;37.760;2023-08-06T03:11:40;28.19;49.24
75705;DHT22;70013;44.726;37.760;2023-08-06T03:12:46;28.34;48.95
75705;DHT22;70013;44.726;37.760;2023-08-06T03:13:47;28.70;47.86
75705;DHT22;70013;44.726;37.760;2023-08-06T03:14:48;29.12;47.10
75705;DHT22;70013;44.726;37.760;2023-08-06T03:15:54;29.43;46.14
75705;DHT22;70013;44.726;37.760;2023-08-06T03:16:55;29.83;45.50
75705;DHT22;70013;44.726;37.760;2023-08-06T03:17:56;30.33;44.45
75705;DHT22;70013;44.726;37.760;2023-08-06T03:18:59;30.84;43.22
75705;DHT22;70013;44.726;37.760;2023-08-06T03:20:00;31.26;41.41
75705;DHT22;70013;44.726;37.760;2023-08-06T03:21:02;31.73;40.91
75705;DHT22;70013;44.726;37.760;2023-08-06T03:22:05;32.17;39.65
75705;DHT22;70013;44.726;37.760;2023-08-06T03:23:09;32.61;38.71
75705;DHT22;70013;44.726;37.760;2023-08-06T03:24:10;32.98;37.56
75705;DHT22;70013;44.726;37.760;2023-08-06T03:25:14;33.28;37.06
75705;DHT22;70013;44.726;37.760;2023-08-06T03:26:19;33.75;36.18
75705;DHT22;70013;44.726;37.760;2023-08-06T03:27:20;34.16;34.69
75705;DHT22;70013;44.726;37.760;2023-08-06T03:28:23;34.51;34.29
75705;DHT22;70013;44.726;37.760;2023-08-06T03:29:25;34.84;33.76
75705;DHT22;70013;44.726;37.760;2023-08-06T03:30:27;35.21;33.34
75705;DHT22;70013;44.726;37.760;2023-08-06T03:31:29;35.51;32.90
75705;DHT22;70013;44.726;37.760;2023-08-06T03:32:37;35.87;31.70
75705;DHT22;70013;44.726;37.760;2023-08-06T03:33:38;36.17;31.44
75705;DHT22;70013;44.726;37.760;2023-08-06T03:34:44;36.43;30.87
75705;DHT22;70013;44.726;37.760;2023-08-06T03:35:46;36.73;30.13
75705;DHT22;70013;44.726;37.760;2023-08-06T03:36:47;36.98;29.29
75705;DHT22;70013;44.726;37.760;2023-08-06T03:37:48;37.29;29.18
75705;DHT22;70013;44.726;37.760;2023-08-06T03:38:51;37.55;28.71
75705;DHT22;70013;44.726;37.760;2023-08-06T03:39:52;37.82;28.03
75705;DHT22;70013;44.726;37.760;2023-08-06T03:40:53;38.03;27.87
75705;DHT22;70013;44.726;37.760;2023-08-06T03:41:54;38.32;26.68
75705;DHT22;70013;44.726;37.760;2023-08-06T03:42:56;38.56;26.72
75705;DHT22;70013;44.726;37.760;2023-08-06T03:43:57;38.84;26.36
75705;DHT22;70013;44.726;37.760;2023-08-06T03:45:01;39.18;25.39
75705;DHT22;70013;44.726;37.760;2023-08-06T03:46:02;39.41;24.98
75705;DHT22;70013;44.726;37.760;2023-08-06T03:47:03;39.69;25.04
75705;DHT22;70013;44.726;37.760;2023-08-06T03:48:04;39.87;24.40
75705;DHT22;70013;44.726;37.760;2023-08-06T03:49:06;40.14;24.30
75705;DHT22;70013;44.726;37.760;2023-08-06T03:50:07;40.43;23.89
75705;DHT22;70013;44.726;37.760;2023-08-06T03:51:09;40.66;23.43
75705;DHT22;70013;44.726;37.760;2023-08-06T03:52:11;40.90;22.53
75705;DHT22;70013;44.726;37.760;2023-08-06T03:53:12;41.12;22.43
75705;DHT22;70013;44.726;37.760;2023-08-06T03:54:14;41.30;21.91
75705;DHT22;70013;44.726;37.760;2023-08-06T03:55:15;41.57;21.95
75705;DHT22;70013;44.726;37.760;2023-08-06T03:56:16;41.72;21.56
75705;DHT22;70013;44.726;37.760;2023-08-06T03:57:18;42.00;21.29
75705;DHT22;70013;44.726;37.760;2023-08-06T03:58:19;42.25;20.82
75705;DHT22;70013;44.726;37.760;2023-08-06T03:59:20;42.45;19.96
75705;DHT22;70013;44.726;37.760;2023-08-06T04:00:22;42.63;20.51
75705;DHT22;70013;44.726;37.760;2023-08-06T04:01:27;42.89;19.69
75705;DHT22;70013;44.726;37.760;2023-08-06T04:02:29;42.87;20.00
75705;DHT22;70013;44.726;37.760;2023-08-06T04:03:30;43.10;19.74
75705;DHT22;70013;44.726;37.760;2023-08-06T04:04:31;43.36;19.38
75705;DHT22;70013;44.726;37.760;2023-08-06T04:05:33;43.59;18.78
75705;DHT22;70013;44.726;37.760;2023-08-06T04:06:34;43.83;18.76
75705;DHT22;70013;44.726;37.760;2023-08-06T04:07:35;44.07;18.19
75705;DHT22;70013;44.726;37.760;2023-08-06T04:08:36;44.18;17.74
75705;DHT22;70013;44.726;37.760;2023-08-06T04:09:53;44.35;18.12
75705;DHT22;70013;44.726;37.760;2023-08-06T04:10:55;44.55;17.45
75705;DHT22;70013;44.726;37.760;2023-08-06T04:11:56;44.79;16.80
75705;DHT22;70013;44.726;37.760;2023-08-06T04:12:59;44.98;17.32
75705;DHT22;70013;44.726;37.760;2023-08-06T04:14:00;45.11;16.84
75705;DHT22;70013;44.726;37.760;2023-08-06T04:15:01;45.28;16.13
75705;DHT22;70013;44.726;37.760;2023-08-06T04:16:05;45.42;16.27
75705;DHT22;70013;44.726;37.760;2023-08-06T04:17:07;45.68;15.78
75705;DHT22;70013;44.726;37.760;2023-08-06T04:18:09;45.99;15.39
75705;DHT22;70013;44.726;37.760;2023-08-06T04:19:10;46.19;15.32
75705;DHT22;70013;44.726;37.760;2023-08-06T04:20:11;46.42;15.12
75705;DHT22;70013;44.726;37.760;2023-08-06T04:21:12;46.64;15.12
75705;DHT22;70013;44.726;37.760;2023-08-06T04:22:15;46.98;14.61
75705;DHT22;70013;44.726;37.760;2023-08-06T04:23:17;47.14;14.45
75705;DHT22;70013;44.726;37.760;2023-08-06T04:24:18;47.29;13.87
75705;DHT22;70013;44.726;37.760;2023-08-06T04:25:19;47.41;13.94
75705;DHT22;70013;44.726;37.760;2023-08-06T04:26:22;47.53;13.65
75705;DHT22;70013;44.726;37.760;2023-08-06T04:27:23;47.62;13.82
75705;DHT22;70013;44.726;37.760;2023-08-06T04:28:24;47.87;13.19
75705;DHT22;70013;44.726;37.760;2023-08-06T04:29:25;47.87;13.45
75705;DHT22;70013;44.726;37.760;2023-08-06T04:30:27;48.03;13.02
75705;DHT22;70013;44.726;37.760;2023-08-06T04:31:28;48.01;13.05
75705;DHT22;70013;44.726;37.760;2023-08-06T04:32:35;48.25;13.10
75705;DHT22;70013;44.726;37.760;2023-08-06T04:33:36;48.49;12.80
75705;DHT22;70013;44.726;37.760;2023-08-06T04:34:42;48.56;12.67
75705;DHT22;70013;44.726;37.760;2023-08-06T04:35:44;48.77;12.33
75705;DHT22;70013;44.726;37.760;2023-08-06T04:36:45;49.03;11.97
75705;DHT22;70013;44.726;37.760;2023-08-06T04:37:46;49.19;11.96
75705;DHT22;70013;44.726;37.760;2023-08-06T04:38:47;49.31;11.36
75705;DHT22;70013;44.726;37.760;2023-08-06T04:39:50;49.43;11.15
75705;DHT22;70013;44.726;37.760;2023-08-06T04:40:53;49.64;11.24
75705;DHT22;70013;44.726;37.760;2023-08-06T04:41:55;49.95;10.80
75705;DHT22;70013;44.726;37.760;2023-08-06T04:42:57;50.27;10.82
75705;DHT22;70013;44.726;37.760;2023-08-06T04:43:58;50.50;10.27
75705;DHT22;70013;44.726;37.760;2023-08-06T04:45:01;50.69;10.24
75705;DHT22;70013;44.726;37.760;2023-08-06T04:46:02;50.90;10.60
75705;DHT22;70013;44.726;37.760;2023-08-06T04:47:03;51.04;9.92
75705;DHT22;70013;44.726;37.760;2023-08-06T04:48:04;51.12;9.95
75705;DHT22;70013;44.726;37.760;2023-08-06T04:49:05;51.36;9.69
75705;DHT22;70013;44.726;37.760;2023-08-06T04:50:07;51.49;9.27
75705;DHT22;70013;44.726;37.760;2023-08-06T04:51:08;51.61;9.45
75705;DHT22;70013;44.726;37.760;2023-08-06T04:52:09;51.76;8.76
75705;DHT22;70013;44.726;37.760;2023-08-06T04:53:10;51.90;9.21
75705;DHT22;70013;44.726;37.760;2023-08-06T04:54:12;52.17;8.81
75705;DHT22;70013;44.726;37.760;2023-08-06T04:55:13;52.32;8.74
75705;DHT22;70013;44.726;37.760;2023-08-06T04:56:14;52.48;8.92
75705;DHT22;70013;44.726;37.760;2023-08-06T04:57:15;52.76;8.27
75705;DHT22;70013;44.726;37.760;2023-08-06T04:58:16;53.00;8.14
75705;DHT22;70013;44.726;37.760;2023-08-06T04:59:17;53.08;8.00
75705;DHT22;70013;44.726;37.760;2023-08-06T05:00:18;53.13;7.98
75705;DHT22;70013;44.726;37.760;2023-08-06T05:01:20;53.37;7.79
75705;DHT22;70013;44.726;37.760;2023-08-06T05:02:21;53.60;7.91
75705;DHT22;70013;44.726;37.760;2023-08-06T05:03:23;53.88;7.50
75705;DHT22;70013;44.726;37.760;2023-08-06T05:04:24;53.86;7.45
75705;DHT22;70013;44.726;37.760;2023-08-06T05:05:25;54.16;7.21
75705;DHT22;70013;44.726;37.760;2023-08-06T05:06:26;54.39;6.87
75705;DHT22;70013;44.726;37.760;2023-08-06T05:07:27;54.65;6.44
75705;DHT22;70013;44.726;37.760;2023-08-06T05:08:28;54.86;7.03
75705;DHT22;70013;44.726;37.760;2023-08-06T05:09:29;55.08;5.92
75705;DHT22;70013;44.726;37.760;2023-08-06T05:10:31;55.27;5.94
75705;DHT22;70013;44.726;37.760;2023-08-06T05:11:32;55.42;6.19
75705;DHT22;70013;44.726;37.760;2023-08-06T05:12:33;55.66;5.57
75705;DHT22;70013;44.726;37.760;2023-08-06T05:13:34;55.71;5.91
75705;DHT22;70013;44.726;37.760;2023-08-06T05:14:36;55.59;5.38
75705;DHT22;70013;44.726;37.760;2023-08-06T05:15:37;55.76;6.01
75705;DHT22;70013;44.726;37.760;2023-08-06T05:16:38;55.90;5.81
75705;DHT22;70013;44.726;37.760;2023-08-06T05:17:39;56.04;5.59
75705;DHT22;70013;44.726;37.760;2023-08-06T05:18:41;56.05;5.41
75705;DHT22;70013;44.726;37.760;2023-08-06T05:19:42;56.33;5.52
75705;DHT22;70013;44.726;37.760;2023-08-06T05:20:43;56.62;5.02
75705;DHT22;70013;44.726;37.760;2023-08-06T05:21:44;56.83;4.85
75705;DHT22;70013;44.726;37.760;2023-08-06T05:22:46;57.08;4.57
75705;DHT22;70013;44.726;37.760;2023-08-06T05:23:47;57.30;4.48
75705;DHT22;70013;44.726;37.760;2023-08-06T05:24:48;57.60;4.39
75705;DHT22;70013;44.726;37.760;2023-08-06T05:25:49;57.75;4.48
75705;DHT22;70013;44.726;37.760;2023-08-06T05:26:50;58.00;4.31
75705;DHT22;70013;44.726;37.760;2023-08-06T05:27:51;58.11;4.16
75705;DHT22;70013;44.726;37.760;2023-08-06T05:28:54;58.27;3.96
75705;DHT22;70013;44.726;37.760;2023-08-06T05:29:55;58.31;3.94
75705;DHT22;70013;44.726;37.760;2023-08-06T05:30:57;58.57;3.74
75705;DHT22;70013;44.726;37.760;2023-08-06T05:31:58;58.61;3.88
75705;DHT22;70013;44.726;37.760;2023-08-06T05:33:05;58.70;3.29
75705;DHT22;70013;44.726;37.760;2023-08-06T05:34:07;58.62;2.99
75705;DHT22;70013;44.726;37.760;2023-08-06T05:35:08;58.74;3.30
75705;DHT22;70013;44.726;37.760;2023-08-06T05:36:09;59.03;3.30
75705;DHT22;70013;44.726;37.760;2023-08-06T05:37:11;59.34;2.83
75705;DHT22;70013;44.726;37.760;2023-08-06T05:38:12;59.40;3.60
75705;DHT22;70013;44.726;37.760;2023-08-06T05:39:13;59.64;2.77
75705;DHT22;70013;44.726;37.760;2023-08-06T05:40:14;59.79;2.67
75705;DHT22;70013;44.726;37.760;2023-08-06T05:41:16;59.99;2.89
75705;DHT22;70013;44.726;37.760;2023-08-06T05:42:17;59.79;2.19
75705;DHT22;70013;44.726;37.760;2023-08-06T05:43:18;59.64;2.51
75705;DHT22;70013;44.726;37.760;2023-08-06T05:44:19;59.65;2.31
75705;DHT22;70013;44.726;37.760;2023-08-06T05:45:20;59.53;2.54
75705;DHT22;70013;44.726;37.760;2023-08-06T05:46:22;59.58;2.72
75705;DHT22;70013;44.726;37.760;2023-08-06T05:47:24;59.39;2.08
75705;DHT22;70013;44.726;37.760;2023-08-06T05:48:25;59.39;2.48
75705;DHT22;70013;44.726;37.760;2023-08-06T05:49:28;59.59;2.58
75705;DHT22;70013;44.726;37.760;2023-08-06T05:50:30;59.47;1.90
75705;DHT22;70013;44.726;37.760;2023-08-06T05:51:31;59.10;2.37
75705;DHT22;70013;44.726;37.760;2023-08-06T05:52:32;59.46;2.28
75705;DHT22;70013;44.726;37.760;2023-08-06T05:53:33;58.91;2.36
75705;DHT22;70013;44.726;37.760;2023-08-06T05:54:35;58.01;3.21
75705;DHT22;70013;44.726;37.760;2023-08-06T05:55:36;58.64;3.26
75705;DHT22;70013;44.726;37.760;2023-08-06T05:56:39;57.49;3.03
75705;DHT22;70013;44.726;37.760;2023-08-06T05:57:40;57.66;3.37
75705;DHT22;70013;44.726;37.760;2023-08-06T05:58:41;58.27;3.35
75705;DHT22;70013;44.726;37.760;2023-08-06T05:59:42;57.87;3.57
75705;DHT22;70013;44.726;37.760;2023-08-06T06:00:43;57.71;2.95
75705;DHT22;70013;44.726;37.760;2023-08-06T06:01:45;57.75;3.50
75705;DHT22;70013;44.726;37.760;2023-08-06T06:02:47;58.20;3.10
75705;DHT22;70013;44.726;37.760;2023-08-06T06:03:48;57.62;3.61
75705;DHT22;70013;44.726;37.760;2023-08-06T06:04:49;57.58;3.55
75705;DHT22;70013;44.726;37.760;2023-08-06T06:05:50;58.25;3.13
75705;DHT22;70013;44.726;37.760;2023-08-06T06:06:52;58.40;2.90
75705;DHT22;70013;44.726;37.760;2023-08-06T06:07:53;58.53;2.93
75705;DHT22;70013;44.726;37.760;2023-08-06T06:08:54;59.29;2.81
75705;DHT22;70013;44.726;37.760;2023-08-06T06:09:55;59.92;2.03
75705;DHT22;70013;44.726;37.760;2023-08-06T06:10:57;60.01;1.83
75705;DHT22;70013;44.726;37.760;2023-08-06T06:11:59;59.78;1.71
75705;DHT22;70013;44.726;37.760;2023-08-06T06:13:00;58.99;2.33
75705;DHT22;70013;44.726;37.760;2023-08-06T06:14:01;58.40;2.94
75705;DHT22;70013;44.726;37.760;2023-08-06T06:15:03;57.39;3.32
75705;DHT22;70013;44.726;37.760;2023-08-06T06:16:04;58.03;3.10
75705;DHT22;70013;44.726;37.760;2023-08-06T06:17:06;58.68;2.77
75705;DHT22;70013;44.726;37.760;2023-08-06T06:18:07;59.36;2.63
75705;DHT22;70013;44.726;37.760;2023-08-06T06:19:08;60.11;2.81
75705;DHT22;70013;44.726;37.760;2023-08-06T06:20:10;60.70;1.85
75705;DHT22;70013;44.726;37.760;2023-08-06T06:21:11;60.88;1.75
75705;DHT22;70013;44.726;37.760;2023-08-06T06:22:12;60.75;1.37
75705;DHT22;70013;44.726;37.760;2023-08-06T06:23:13;61.21;1.50
75705;DHT22;70013;44.726;37.760;2023-08-06T06:24:15;61.73;0.93
75705;DHT22;70013;44.726;37.760;2023-08-06T06:25:16;61.45;1.19
75705;DHT22;70013;44.726;37.760;2023-08-06T06:26:20;61.93;1.08
75705;DHT22;70013;44.726;37.760;2023-08-06T06:27:21;62.17;1.19
75705;DHT22;70013;44.726;37.760;2023-08-06T06:28:22;61.74;1.05
75705;DHT22;70013;44.726;37.760;2023-08-06T06:29:24;61.98;0.70
75705;DHT22;70013;44.726;37.760;2023-08-06T06:30:25;61.54;1.21
75705;DHT22;70013;44.726;37.760;2023-08-06T06:31:26;61.17;1.35
75705;DHT22;70013;44.726;37.760;2023-08-06T06:32:33;61.52;1.11